DeKalb Peachtree Airport Atlanta US
ICAO: KPDK
IATA: PDK
Category: Medium
Scheduled Services: No

Elevation: 1003 ft
TransAlt. 18000 ft.

Airport Communications:
ATLANTA APP/DEP:126.975
ATIS:128.4
CLNC DEL:120.9
CTAF:120.9
GND:121.6
MACON RDO:116.6
PEACHTREE TWR:120.9
UNICOM:122.95

KPDK Zoom In..

Runways:

(A) RW 03L length 3746 ft width 150 ft
---- / hdg 26

(B) RW 03R length 6001 ft width 100 ft
---- / hdg 26

(C) RW 09 length 3383 ft width 150 ft
---- / hdg 91

(D) RW 16 length 3967 ft width 150 ft
---- / hdg 162

(E) RW 21L length 6001 ft width 100 ft
ILS 111.10 / hdg 206

(F) RW 21R length 3746 ft width 150 ft
---- / hdg 206

(G) RW 27 length 3383 ft width 150 ft
---- / hdg 271

(H) RW 34 length 3967 ft width 150 ft
---- / hdg 342

Location; KPDK
Day. 23 / Time. 21.53 Zulu
* Altimeter: 30.01
* Temperature: 12° c. 53.6°f.
* Wind from: 290° Speed 12 kn with Gusts up to 20 kn.
Dewpoint: -02° c.
Visibility: 10 Statute Miles.
Clouds: Clear (automated report).

KPDK 232153Z 29012G20KT 10SM CLR 12/M02 A3001 RMK AO2 SLP162 T01171017


Wind From 290°
Speed 12 kn.

YouTube Music Video
 
jpsmedia.com for Web Design  worldairports.se 2018   terms of use